sensor_id;sensor_type;location;lat;lon;timestamp;temperature;humidity
64951;DHT22;51482;47.014;7.652;2023-04-01T00:01:24;7.20;99.90
64951;DHT22;51482;47.014;7.652;2023-04-01T00:03:50;6.60;99.90
64951;DHT22;51482;47.014;7.652;2023-04-01T00:06:18;7.90;99.90
64951;DHT22;51482;47.014;7.652;2023-04-01T00:08:44;7.90;99.90
64951;DHT22;51482;47.014;7.652;2023-04-01T00:11:10;7.60;99.90
64951;DHT22;51482;47.014;7.652;2023-04-01T00:13:36;7.40;99.90
64951;DHT22;51482;47.014;7.652;2023-04-01T00:16:02;7.60;99.90
64951;DHT22;51482;47.014;7.652;2023-04-01T00:18:28;7.80;99.90
64951;DHT22;51482;47.014;7.652;2023-04-01T00:20:54;7.70;99.90
64951;DHT22;51482;47.014;7.652;2023-04-01T00:23:21;7.50;99.90
64951;DHT22;51482;47.014;7.652;2023-04-01T00:25:47;7.80;99.90
64951;DHT22;51482;47.014;7.652;2023-04-01T00:28:18;7.40;99.90
64951;DHT22;51482;47.014;7.652;2023-04-01T00:30:44;7.40;99.90
64951;DHT22;51482;47.014;7.652;2023-04-01T00:33:10;7.90;99.90
64951;DHT22;51482;47.014;7.652;2023-04-01T00:35:36;7.40;99.90
64951;DHT22;51482;47.014;7.652;2023-04-01T00:38:02;7.30;99.90
64951;DHT22;51482;47.014;7.652;2023-04-01T00:40:37;7.20;99.90
64951;DHT22;51482;47.014;7.652;2023-04-01T00:43:08;7.30;99.90
64951;DHT22;51482;47.014;7.652;2023-04-01T00:45:37;7.40;99.90
64951;DHT22;51482;47.014;7.652;2023-04-01T00:48:25;7.50;99.90
64951;DHT22;51482;47.014;7.652;2023-04-01T00:50:58;7.40;99.90
64951;DHT22;51482;47.014;7.652;2023-04-01T00:53:25;7.20;99.90
64951;DHT22;51482;47.014;7.652;2023-04-01T00:56:15;7.90;99.90
64951;DHT22;51482;47.014;7.652;2023-04-01T00:58:48;7.40;99.90
64951;DHT22;51482;47.014;7.652;2023-04-01T01:01:15;7.90;99.90
64951;DHT22;51482;47.014;7.652;2023-04-01T01:03:41;6.90;99.90
64951;DHT22;51482;47.014;7.652;2023-04-01T01:09:03;7.40;99.90
64951;DHT22;51482;47.014;7.652;2023-04-01T01:11:42;8.00;99.90
64951;DHT22;51482;47.014;7.652;2023-04-01T01:14:21;7.40;99.90
64951;DHT22;51482;47.014;7.652;2023-04-01T01:16:57;7.40;99.90
64951;DHT22;51482;47.014;7.652;2023-04-01T01:22:25;6.80;99.90
64951;DHT22;51482;47.014;7.652;2023-04-01T01:28:26;7.40;99.90
64951;DHT22;51482;47.014;7.652;2023-04-01T01:30:59;7.40;99.90
64951;DHT22;51482;47.014;7.652;2023-04-01T01:36:02;7.60;99.90
64951;DHT22;51482;47.014;7.652;2023-04-01T01:38:31;7.50;99.90
64951;DHT22;51482;47.014;7.652;2023-04-01T01:40:59;6.70;99.90
64951;DHT22;51482;47.014;7.652;2023-04-01T01:43:29;7.40;99.90
64951;DHT22;51482;47.014;7.652;2023-04-01T01:45:58;7.60;99.90
64951;DHT22;51482;47.014;7.652;2023-04-01T01:48:26;7.40;99.90
64951;DHT22;51482;47.014;7.652;2023-04-01T01:50:53;7.50;99.90
64951;DHT22;51482;47.014;7.652;2023-04-01T01:53:19;8.00;99.90
64951;DHT22;51482;47.014;7.652;2023-04-01T01:55:46;8.10;99.90
64951;DHT22;51482;47.014;7.652;2023-04-01T01:58:37;7.50;99.90
64951;DHT22;51482;47.014;7.652;2023-04-01T02:01:09;7.50;99.90
64951;DHT22;51482;47.014;7.652;2023-04-01T02:03:38;8.00;99.90
64951;DHT22;51482;47.014;7.652;2023-04-01T02:06:08;8.20;99.90
64951;DHT22;51482;47.014;7.652;2023-04-01T02:08:42;7.50;99.90
64951;DHT22;51482;47.014;7.652;2023-04-01T02:11:11;7.50;99.90
64951;DHT22;51482;47.014;7.652;2023-04-01T02:16:35;7.50;99.90
64951;DHT22;51482;47.014;7.652;2023-04-01T02:19:03;7.10;99.90
64951;DHT22;51482;47.014;7.652;2023-04-01T02:21:33;7.70;99.90
64951;DHT22;51482;47.014;7.652;2023-04-01T02:24:03;7.40;99.90
64951;DHT22;51482;47.014;7.652;2023-04-01T02:26:30;7.40;99.90
64951;DHT22;51482;47.014;7.652;2023-04-01T02:28:56;7.30;99.90
64951;DHT22;51482;47.014;7.652;2023-04-01T02:31:24;7.80;99.90
64951;DHT22;51482;47.014;7.652;2023-04-01T02:33:50;7.90;99.90
64951;DHT22;51482;47.014;7.652;2023-04-01T02:36:16;7.90;99.90
64951;DHT22;51482;47.014;7.652;2023-04-01T02:38:44;7.30;99.90
64951;DHT22;51482;47.014;7.652;2023-04-01T02:41:10;7.20;99.90
64951;DHT22;51482;47.014;7.652;2023-04-01T02:43:36;7.50;99.90
64951;DHT22;51482;47.014;7.652;2023-04-01T02:46:02;7.90;99.90
64951;DHT22;51482;47.014;7.652;2023-04-01T02:48:28;8.00;99.90
64951;DHT22;51482;47.014;7.652;2023-04-01T02:50:54;7.30;99.90
64951;DHT22;51482;47.014;7.652;2023-04-01T02:53:19;7.40;99.90
64951;DHT22;51482;47.014;7.652;2023-04-01T02:55:45;7.00;99.90
64951;DHT22;51482;47.014;7.652;2023-04-01T02:58:11;7.90;99.90
64951;DHT22;51482;47.014;7.652;2023-04-01T03:00:37;7.90;99.90
64951;DHT22;51482;47.014;7.652;2023-04-01T03:03:02;7.40;99.90
64951;DHT22;51482;47.014;7.652;2023-04-01T03:05:28;7.80;99.90
64951;DHT22;51482;47.014;7.652;2023-04-01T03:07:54;7.80;99.90
64951;DHT22;51482;47.014;7.652;2023-04-01T03:10:20;7.70;99.90
64951;DHT22;51482;47.014;7.652;2023-04-01T03:12:45;7.80;99.90
64951;DHT22;51482;47.014;7.652;2023-04-01T03:15:12;7.90;99.90
64951;DHT22;51482;47.014;7.652;2023-04-01T03:17:40;7.70;99.90
64951;DHT22;51482;47.014;7.652;2023-04-01T03:20:07;7.90;99.90
64951;DHT22;51482;47.014;7.652;2023-04-01T03:22:34;7.40;99.90
64951;DHT22;51482;47.014;7.652;2023-04-01T03:25:01;7.80;99.90
64951;DHT22;51482;47.014;7.652;2023-04-01T03:27:26;7.80;99.90
64951;DHT22;51482;47.014;7.652;2023-04-01T03:29:52;7.80;99.90
64951;DHT22;51482;47.014;7.652;2023-04-01T03:32:17;7.90;99.90
64951;DHT22;51482;47.014;7.652;2023-04-01T03:34:43;7.40;99.90
64951;DHT22;51482;47.014;7.652;2023-04-01T03:37:08;7.80;99.90
64951;DHT22;51482;47.014;7.652;2023-04-01T03:39:34;7.30;99.90
64951;DHT22;51482;47.014;7.652;2023-04-01T03:42:00;7.80;99.90
64951;DHT22;51482;47.014;7.652;2023-04-01T03:44:26;7.30;99.90
64951;DHT22;51482;47.014;7.652;2023-04-01T03:46:55;6.80;99.90
64951;DHT22;51482;47.014;7.652;2023-04-01T03:49:20;6.80;99.90
64951;DHT22;51482;47.014;7.652;2023-04-01T03:51:46;8.00;99.90
64951;DHT22;51482;47.014;7.652;2023-04-01T03:54:11;7.80;99.90
64951;DHT22;51482;47.014;7.652;2023-04-01T03:56:37;7.90;99.90
64951;DHT22;51482;47.014;7.652;2023-04-01T03:59:06;7.40;99.90
64951;DHT22;51482;47.014;7.652;2023-04-01T04:01:32;7.50;99.90
64951;DHT22;51482;47.014;7.652;2023-04-01T04:03:57;7.70;99.90
64951;DHT22;51482;47.014;7.652;2023-04-01T04:06:24;7.50;99.90
64951;DHT22;51482;47.014;7.652;2023-04-01T04:08:50;7.90;99.90
64951;DHT22;51482;47.014;7.652;2023-04-01T04:11:16;7.30;99.90
64951;DHT22;51482;47.014;7.652;2023-04-01T04:13:42;7.80;99.90
64951;DHT22;51482;47.014;7.652;2023-04-01T04:16:09;7.50;99.90
64951;DHT22;51482;47.014;7.652;2023-04-01T04:18:35;7.20;99.90
64951;DHT22;51482;47.014;7.652;2023-04-01T04:21:01;7.70;99.90
64951;DHT22;51482;47.014;7.652;2023-04-01T04:23:27;7.20;99.90
64951;DHT22;51482;47.014;7.652;2023-04-01T04:25:57;7.20;99.90
64951;DHT22;51482;47.014;7.652;2023-04-01T04:28:23;7.90;99.90
64951;DHT22;51482;47.014;7.652;2023-04-01T04:30:48;7.30;99.90
64951;DHT22;51482;47.014;7.652;2023-04-01T04:33:14;7.70;99.90
64951;DHT22;51482;47.014;7.652;2023-04-01T04:35:39;7.40;99.90
64951;DHT22;51482;47.014;7.652;2023-04-01T04:38:05;7.70;99.90
64951;DHT22;51482;47.014;7.652;2023-04-01T04:40:30;7.70;99.90
64951;DHT22;51482;47.014;7.652;2023-04-01T04:42:56;7.80;99.90
64951;DHT22;51482;47.014;7.652;2023-04-01T04:45:21;7.20;99.90
64951;DHT22;51482;47.014;7.652;2023-04-01T04:47:47;7.50;99.90
64951;DHT22;51482;47.014;7.652;2023-04-01T04:50:12;7.30;99.90
64951;DHT22;51482;47.014;7.652;2023-04-01T04:52:38;7.60;99.90
64951;DHT22;51482;47.014;7.652;2023-04-01T04:55:04;7.70;99.90
64951;DHT22;51482;47.014;7.652;2023-04-01T04:57:30;7.20;99.90
64951;DHT22;51482;47.014;7.652;2023-04-01T04:59:55;7.00;99.90
64951;DHT22;51482;47.014;7.652;2023-04-01T05:02:21;7.70;99.90
64951;DHT22;51482;47.014;7.652;2023-04-01T05:04:46;6.50;99.90
64951;DHT22;51482;47.014;7.652;2023-04-01T05:07:12;7.60;99.90
64951;DHT22;51482;47.014;7.652;2023-04-01T05:09:37;7.50;99.90
64951;DHT22;51482;47.014;7.652;2023-04-01T05:12:03;7.10;99.90
64951;DHT22;51482;47.014;7.652;2023-04-01T05:14:29;7.10;99.90
64951;DHT22;51482;47.014;7.652;2023-04-01T05:16:54;7.60;99.90
64951;DHT22;51482;47.014;7.652;2023-04-01T05:19:20;7.40;99.90
64951;DHT22;51482;47.014;7.652;2023-04-01T05:21:45;7.10;99.90
64951;DHT22;51482;47.014;7.652;2023-04-01T05:24:11;7.00;99.90
64951;DHT22;51482;47.014;7.652;2023-04-01T05:26:36;7.30;99.90
64951;DHT22;51482;47.014;7.652;2023-04-01T05:29:03;7.30;99.90
64951;DHT22;51482;47.014;7.652;2023-04-01T05:31:29;7.40;99.90
64951;DHT22;51482;47.014;7.652;2023-04-01T05:33:55;7.10;99.90
64951;DHT22;51482;47.014;7.652;2023-04-01T05:36:20;6.30;99.90
64951;DHT22;51482;47.014;7.652;2023-04-01T05:38:46;6.80;99.90
64951;DHT22;51482;47.014;7.652;2023-04-01T05:41:13;7.30;99.90
64951;DHT22;51482;47.014;7.652;2023-04-01T05:43:39;6.90;99.90
64951;DHT22;51482;47.014;7.652;2023-04-01T05:46:05;7.70;99.90
64951;DHT22;51482;47.014;7.652;2023-04-01T05:48:33;7.80;99.90
64951;DHT22;51482;47.014;7.652;2023-04-01T05:51:00;7.70;99.90
64951;DHT22;51482;47.014;7.652;2023-04-01T05:53:26;7.20;99.90
64951;DHT22;51482;47.014;7.652;2023-04-01T05:55:51;7.60;99.90
64951;DHT22;51482;47.014;7.652;2023-04-01T05:58:17;7.30;99.90
64951;DHT22;51482;47.014;7.652;2023-04-01T06:00:43;7.30;99.90
64951;DHT22;51482;47.014;7.652;2023-04-01T06:03:09;7.00;99.90
64951;DHT22;51482;47.014;7.652;2023-04-01T06:05:42;7.80;99.90
64951;DHT22;51482;47.014;7.652;2023-04-01T06:08:18;8.00;99.90
64951;DHT22;51482;47.014;7.652;2023-04-01T06:10:48;8.00;99.90
64951;DHT22;51482;47.014;7.652;2023-04-01T06:18:45;7.60;99.90
64951;DHT22;51482;47.014;7.652;2023-04-01T06:21:32;8.00;99.90
64951;DHT22;51482;47.014;7.652;2023-04-01T06:24:57;8.00;99.90
64951;DHT22;51482;47.014;7.652;2023-04-01T06:35:24;7.50;99.90
64951;DHT22;51482;47.014;7.652;2023-04-01T06:38:02;8.10;99.90
64951;DHT22;51482;47.014;7.652;2023-04-01T06:43:37;6.90;99.90
64951;DHT22;51482;47.014;7.652;2023-04-01T06:51:59;7.70;99.90
64951;DHT22;51482;47.014;7.652;2023-04-01T06:54:34;8.10;99.90
64951;DHT22;51482;47.014;7.652;2023-04-01T06:57:25;8.30;99.90
64951;DHT22;51482;47.014;7.652;2023-04-01T06:59:55;7.60;99.90
64951;DHT22;51482;47.014;7.652;2023-04-01T07:02:32;8.20;99.90
64951;DHT22;51482;47.014;7.652;2023-04-01T07:04:59;8.00;99.90
64951;DHT22;51482;47.014;7.652;2023-04-01T07:07:37;7.60;99.90
64951;DHT22;51482;47.014;7.652;2023-04-01T07:10:09;7.60;99.90
64951;DHT22;51482;47.014;7.652;2023-04-01T07:12:53;7.70;99.90
64951;DHT22;51482;47.014;7.652;2023-04-01T07:15:21;8.40;99.90
64951;DHT22;51482;47.014;7.652;2023-04-01T07:17:54;7.40;99.90
64951;DHT22;51482;47.014;7.652;2023-04-01T07:20:30;8.00;99.90
64951;DHT22;51482;47.014;7.652;2023-04-01T07:22:59;8.50;99.90
64951;DHT22;51482;47.014;7.652;2023-04-01T07:28:01;8.20;99.90
64951;DHT22;51482;47.014;7.652;2023-04-01T07:30:51;7.80;99.90
64951;DHT22;51482;47.014;7.652;2023-04-01T07:36:15;8.10;99.90
64951;DHT22;51482;47.014;7.652;2023-04-01T07:39:01;8.00;99.90
64951;DHT22;51482;47.014;7.652;2023-04-01T07:41:56;8.30;99.90
64951;DHT22;51482;47.014;7.652;2023-04-01T07:50:28;8.50;99.90
64951;DHT22;51482;47.014;7.652;2023-04-01T07:53:08;7.80;99.90
64951;DHT22;51482;47.014;7.652;2023-04-01T07:58:59;8.10;99.90
64951;DHT22;51482;47.014;7.652;2023-04-01T08:01:35;8.30;99.90
64951;DHT22;51482;47.014;7.652;2023-04-01T08:17:36;8.50;99.90
64951;DHT22;51482;47.014;7.652;2023-04-01T08:20:35;8.80;99.90
64951;DHT22;51482;47.014;7.652;2023-04-01T08:25:39;8.30;99.90
64951;DHT22;51482;47.014;7.652;2023-04-01T08:28:36;8.80;99.90
64951;DHT22;51482;47.014;7.652;2023-04-01T08:31:12;8.00;99.90
64951;DHT22;51482;47.014;7.652;2023-04-01T08:33:39;8.20;99.90
64951;DHT22;51482;47.014;7.652;2023-04-01T08:36:43;7.60;99.90
64951;DHT22;51482;47.014;7.652;2023-04-01T08:39:07;8.00;99.90
64951;DHT22;51482;47.014;7.652;2023-04-01T08:42:04;8.80;99.90
64951;DHT22;51482;47.014;7.652;2023-04-01T08:45:41;8.50;99.90
64951;DHT22;51482;47.014;7.652;2023-04-01T08:51:08;8.40;99.90
64951;DHT22;51482;47.014;7.652;2023-04-01T08:53:43;8.40;99.90
64951;DHT22;51482;47.014;7.652;2023-04-01T08:56:26;8.50;99.90
64951;DHT22;51482;47.014;7.652;2023-04-01T09:05:04;8.40;99.90
64951;DHT22;51482;47.014;7.652;2023-04-01T09:10:49;9.20;99.90
64951;DHT22;51482;47.014;7.652;2023-04-01T09:44:18;9.20;99.90
64951;DHT22;51482;47.014;7.652;2023-04-01T09:51:59;9.30;99.90
64951;DHT22;51482;47.014;7.652;2023-04-01T09:54:47;9.30;99.90
64951;DHT22;51482;47.014;7.652;2023-04-01T10:01:22;9.40;99.90
64951;DHT22;51482;47.014;7.652;2023-04-01T10:03:54;9.70;99.90
64951;DHT22;51482;47.014;7.652;2023-04-01T10:09:27;9.80;99.90
64951;DHT22;51482;47.014;7.652;2023-04-01T10:15:09;9.90;99.90
64951;DHT22;51482;47.014;7.652;2023-04-01T10:18:01;9.30;99.90
64951;DHT22;51482;47.014;7.652;2023-04-01T10:21:03;9.20;99.90
64951;DHT22;51482;47.014;7.652;2023-04-01T10:26:25;9.70;99.90
64951;DHT22;51482;47.014;7.652;2023-04-01T10:45:44;10.10;99.90
64951;DHT22;51482;47.014;7.652;2023-04-01T10:57:02;10.80;99.90
64951;DHT22;51482;47.014;7.652;2023-04-01T11:24:38;11.20;99.90
64951;DHT22;51482;47.014;7.652;2023-04-01T11:33:03;11.00;99.90
64951;DHT22;51482;47.014;7.652;2023-04-01T11:38:35;10.70;99.90
64951;DHT22;51482;47.014;7.652;2023-04-01T11:44:22;11.60;99.90
64951;DHT22;51482;47.014;7.652;2023-04-01T12:01:17;11.20;99.90
64951;DHT22;51482;47.014;7.652;2023-04-01T12:15:18;11.70;99.90
64951;DHT22;51482;47.014;7.652;2023-04-01T12:20:51;11.60;99.90
64951;DHT22;51482;47.014;7.652;2023-04-01T12:35:04;12.60;99.90
64951;DHT22;51482;47.014;7.652;2023-04-01T12:43:22;12.60;99.90
64951;DHT22;51482;47.014;7.652;2023-04-01T12:45:56;13.90;99.90
64951;DHT22;51482;47.014;7.652;2023-04-01T13:08:20;12.50;99.90
64951;DHT22;51482;47.014;7.652;2023-04-01T13:13:47;13.90;99.90
64951;DHT22;51482;47.014;7.652;2023-04-01T13:16:31;15.10;99.90
64951;DHT22;51482;47.014;7.652;2023-04-01T13:19:27;14.70;99.90
64951;DHT22;51482;47.014;7.652;2023-04-01T13:22:24;15.10;99.90
64951;DHT22;51482;47.014;7.652;2023-04-01T13:27:44;15.20;99.90
64951;DHT22;51482;47.014;7.652;2023-04-01T13:30:29;15.20;99.90
64951;DHT22;51482;47.014;7.652;2023-04-01T13:33:00;14.90;99.90
64951;DHT22;51482;47.014;7.652;2023-04-01T13:35:42;14.90;99.90
64951;DHT22;51482;47.014;7.652;2023-04-01T13:41:10;14.50;99.90
64951;DHT22;51482;47.014;7.652;2023-04-01T13:44:02;14.10;99.90
64951;DHT22;51482;47.014;7.652;2023-04-01T13:46:48;14.00;99.90
64951;DHT22;51482;47.014;7.652;2023-04-01T13:52:29;15.40;99.90
64951;DHT22;51482;47.014;7.652;2023-04-01T13:55:28;15.40;99.90
64951;DHT22;51482;47.014;7.652;2023-04-01T14:15:34;13.70;99.90
64951;DHT22;51482;47.014;7.652;2023-04-01T14:21:41;12.80;99.90
64951;DHT22;51482;47.014;7.652;2023-04-01T14:24:19;13.20;99.90
64951;DHT22;51482;47.014;7.652;2023-04-01T14:29:45;13.40;99.90
64951;DHT22;51482;47.014;7.652;2023-04-01T14:35:41;13.50;99.90
64951;DHT22;51482;47.014;7.652;2023-04-01T14:38:27;14.00;99.90
64951;DHT22;51482;47.014;7.652;2023-04-01T14:41:15;14.50;99.90
64951;DHT22;51482;47.014;7.652;2023-04-01T14:43:56;15.30;99.90
64951;DHT22;51482;47.014;7.652;2023-04-01T14:49:48;15.50;98.00
64951;DHT22;51482;47.014;7.652;2023-04-01T14:52:28;15.20;97.00
64951;DHT22;51482;47.014;7.652;2023-04-01T14:54:57;14.90;97.90
64951;DHT22;51482;47.014;7.652;2023-04-01T14:57:31;14.60;98.30
64951;DHT22;51482;47.014;7.652;2023-04-01T15:02:54;14.30;97.80
64951;DHT22;51482;47.014;7.652;2023-04-01T15:06:00;14.00;97.50
64951;DHT22;51482;47.014;7.652;2023-04-01T15:14:26;13.50;99.00
64951;DHT22;51482;47.014;7.652;2023-04-01T15:27:57;11.20;99.90
64951;DHT22;51482;47.014;7.652;2023-04-01T15:30:49;11.00;99.90
64951;DHT22;51482;47.014;7.652;2023-04-01T15:33:45;10.60;99.90
64951;DHT22;51482;47.014;7.652;2023-04-01T15:36:36;9.60;99.90
64951;DHT22;51482;47.014;7.652;2023-04-01T15:39:09;10.20;99.90
64951;DHT22;51482;47.014;7.652;2023-04-01T15:50:41;10.10;99.90
64951;DHT22;51482;47.014;7.652;2023-04-01T15:55:50;10.90;99.90
64951;DHT22;51482;47.014;7.652;2023-04-01T16:01:04;11.50;99.90
64951;DHT22;51482;47.014;7.652;2023-04-01T16:06:37;12.00;99.90
64951;DHT22;51482;47.014;7.652;2023-04-01T16:12:07;12.10;99.90
64951;DHT22;51482;47.014;7.652;2023-04-01T16:18:04;12.30;99.90
64951;DHT22;51482;47.014;7.652;2023-04-01T16:20:50;12.30;99.90
64951;DHT22;51482;47.014;7.652;2023-04-01T16:23:43;12.30;99.90
64951;DHT22;51482;47.014;7.652;2023-04-01T16:26:26;12.30;99.90
64951;DHT22;51482;47.014;7.652;2023-04-01T16:29:22;12.00;99.90
64951;DHT22;51482;47.014;7.652;2023-04-01T16:32:00;11.90;99.90
64951;DHT22;51482;47.014;7.652;2023-04-01T16:34:38;11.80;99.90
64951;DHT22;51482;47.014;7.652;2023-04-01T16:37:29;11.80;99.90
64951;DHT22;51482;47.014;7.652;2023-04-01T16:42:51;11.30;99.90
64951;DHT22;51482;47.014;7.652;2023-04-01T16:50:58;11.30;99.90
64951;DHT22;51482;47.014;7.652;2023-04-01T16:53:52;11.30;99.90
64951;DHT22;51482;47.014;7.652;2023-04-01T16:56:42;11.20;99.90
64951;DHT22;51482;47.014;7.652;2023-04-01T16:59:24;11.10;99.90
64951;DHT22;51482;47.014;7.652;2023-04-01T17:02:04;11.10;99.90
64951;DHT22;51482;47.014;7.652;2023-04-01T17:04:57;11.20;99.90
64951;DHT22;51482;47.014;7.652;2023-04-01T17:07:38;11.00;99.90
64951;DHT22;51482;47.014;7.652;2023-04-01T17:15:25;10.90;99.90
64951;DHT22;51482;47.014;7.652;2023-04-01T17:18:13;11.30;99.90
64951;DHT22;51482;47.014;7.652;2023-04-01T17:23:40;10.80;99.90
64951;DHT22;51482;47.014;7.652;2023-04-01T17:29:10;10.80;99.90
64951;DHT22;51482;47.014;7.652;2023-04-01T17:32:05;10.90;99.90
64951;DHT22;51482;47.014;7.652;2023-04-01T17:40:39;10.10;99.90
64951;DHT22;51482;47.014;7.652;2023-04-01T17:46:34;10.00;99.90
64951;DHT22;51482;47.014;7.652;2023-04-01T17:49:33;10.20;99.90
64951;DHT22;51482;47.014;7.652;2023-04-01T17:52:15;9.90;99.90
64951;DHT22;51482;47.014;7.652;2023-04-01T18:05:40;9.60;99.90
64951;DHT22;51482;47.014;7.652;2023-04-01T18:11:34;9.60;99.90
64951;DHT22;51482;47.014;7.652;2023-04-01T18:21:56;9.30;99.90
64951;DHT22;51482;47.014;7.652;2023-04-01T18:24:35;10.10;99.90
64951;DHT22;51482;47.014;7.652;2023-04-01T18:29:49;10.00;99.90
64951;DHT22;51482;47.014;7.652;2023-04-01T18:32:27;9.70;99.90
64951;DHT22;51482;47.014;7.652;2023-04-01T18:35:17;9.50;99.90
64951;DHT22;51482;47.014;7.652;2023-04-01T18:37:51;9.90;99.90
64951;DHT22;51482;47.014;7.652;2023-04-01T18:43:38;9.40;99.90
64951;DHT22;51482;47.014;7.652;2023-04-01T18:46:22;9.90;99.90
64951;DHT22;51482;47.014;7.652;2023-04-01T18:48:51;9.00;99.90
64951;DHT22;51482;47.014;7.652;2023-04-01T18:54:13;9.10;99.90
64951;DHT22;51482;47.014;7.652;2023-04-01T18:56:43;9.20;99.90
64951;DHT22;51482;47.014;7.652;2023-04-01T19:02:00;9.10;99.90
64951;DHT22;51482;47.014;7.652;2023-04-01T19:04:36;9.00;99.90
64951;DHT22;51482;47.014;7.652;2023-04-01T19:07:42;9.30;99.90
64951;DHT22;51482;47.014;7.652;2023-04-01T19:15:34;9.30;99.90
64951;DHT22;51482;47.014;7.652;2023-04-01T19:21:16;8.80;99.90
64951;DHT22;51482;47.014;7.652;2023-04-01T19:24:15;8.90;99.90
64951;DHT22;51482;47.014;7.652;2023-04-01T19:27:18;8.70;99.90
64951;DHT22;51482;47.014;7.652;2023-04-01T19:32:49;8.70;99.90
64951;DHT22;51482;47.014;7.652;2023-04-01T19:46:16;8.10;99.90
64951;DHT22;51482;47.014;7.652;2023-04-01T19:49:05;8.40;99.90
64951;DHT22;51482;47.014;7.652;2023-04-01T19:52:00;7.90;99.90
64951;DHT22;51482;47.014;7.652;2023-04-01T19:57:50;7.70;99.90
64951;DHT22;51482;47.014;7.652;2023-04-01T20:00:30;7.60;99.90
64951;DHT22;51482;47.014;7.652;2023-04-01T20:08:17;8.30;99.90
64951;DHT22;51482;47.014;7.652;2023-04-01T20:11:12;7.60;99.90
64951;DHT22;51482;47.014;7.652;2023-04-01T20:16:14;7.50;99.90
64951;DHT22;51482;47.014;7.652;2023-04-01T20:18:55;7.00;99.90
64951;DHT22;51482;47.014;7.652;2023-04-01T20:21:41;7.30;99.90
64951;DHT22;51482;47.014;7.652;2023-04-01T20:26:43;7.70;99.90
64951;DHT22;51482;47.014;7.652;2023-04-01T20:37:42;7.20;99.90
64951;DHT22;51482;47.014;7.652;2023-04-01T20:40:32;7.30;99.90
64951;DHT22;51482;47.014;7.652;2023-04-01T20:43:22;7.30;99.90
64951;DHT22;51482;47.014;7.652;2023-04-01T20:51:19;7.40;99.90
64951;DHT22;51482;47.014;7.652;2023-04-01T20:53:57;8.00;99.90
64951;DHT22;51482;47.014;7.652;2023-04-01T20:56:30;7.40;99.90
64951;DHT22;51482;47.014;7.652;2023-04-01T21:07:58;7.50;99.90
64951;DHT22;51482;47.014;7.652;2023-04-01T21:13:31;7.50;99.90
64951;DHT22;51482;47.014;7.652;2023-04-01T21:21:58;7.10;99.90
64951;DHT22;51482;47.014;7.652;2023-04-01T21:24:35;7.50;99.90
64951;DHT22;51482;47.014;7.652;2023-04-01T21:33:16;7.20;99.90
64951;DHT22;51482;47.014;7.652;2023-04-01T21:39:03;7.10;99.90
64951;DHT22;51482;47.014;7.652;2023-04-01T21:42:07;7.10;99.90
64951;DHT22;51482;47.014;7.652;2023-04-01T21:44:57;7.00;99.90
64951;DHT22;51482;47.014;7.652;2023-04-01T21:58:42;7.00;99.90
64951;DHT22;51482;47.014;7.652;2023-04-01T22:09:05;6.90;99.90
64951;DHT22;51482;47.014;7.652;2023-04-01T22:11:52;6.60;99.90
64951;DHT22;51482;47.014;7.652;2023-04-01T22:17:21;7.30;99.90
64951;DHT22;51482;47.014;7.652;2023-04-01T22:20:25;7.00;99.90
64951;DHT22;51482;47.014;7.652;2023-04-01T22:22:57;6.80;99.90
64951;DHT22;51482;47.014;7.652;2023-04-01T22:30:51;6.90;99.90
64951;DHT22;51482;47.014;7.652;2023-04-01T22:34:26;7.40;99.90
64951;DHT22;51482;47.014;7.652;2023-04-01T22:36:36;7.60;99.90
64951;DHT22;51482;47.014;7.652;2023-04-01T22:39:37;7.00;99.90
64951;DHT22;51482;47.014;7.652;2023-04-01T22:42:39;7.00;99.90
64951;DHT22;51482;47.014;7.652;2023-04-01T22:47:45;7.10;99.90
64951;DHT22;51482;47.014;7.652;2023-04-01T22:50:39;6.90;99.90
64951;DHT22;51482;47.014;7.652;2023-04-01T22:53:17;6.90;99.90
64951;DHT22;51482;47.014;7.652;2023-04-01T22:55:49;7.10;99.90
64951;DHT22;51482;47.014;7.652;2023-04-01T22:58:25;7.00;99.90
64951;DHT22;51482;47.014;7.652;2023-04-01T23:01:16;7.20;99.90
64951;DHT22;51482;47.014;7.652;2023-04-01T23:03:49;7.50;99.90
64951;DHT22;51482;47.014;7.652;2023-04-01T23:06:28;6.90;99.90
64951;DHT22;51482;47.014;7.652;2023-04-01T23:09:04;6.90;99.90
64951;DHT22;51482;47.014;7.652;2023-04-01T23:11:43;6.20;99.90
64951;DHT22;51482;47.014;7.652;2023-04-01T23:20:20;6.80;99.90
64951;DHT22;51482;47.014;7.652;2023-04-01T23:26:00;6.80;99.90
64951;DHT22;51482;47.014;7.652;2023-04-01T23:31:37;7.30;99.90
64951;DHT22;51482;47.014;7.652;2023-04-01T23:36:48;7.60;99.90
64951;DHT22;51482;47.014;7.652;2023-04-01T23:41:56;7.50;99.90
64951;DHT22;51482;47.014;7.652;2023-04-01T23:44:24;7.40;99.90
64951;DHT22;51482;47.014;7.652;2023-04-01T23:46:51;7.10;99.90
64951;DHT22;51482;47.014;7.652;2023-04-01T23:50:23;7.80;99.90
64951;DHT22;51482;47.014;7.652;2023-04-01T23:52:26;6.90;99.90
64951;DHT22;51482;47.014;7.652;2023-04-01T23:54:58;6.80;99.90
64951;DHT22;51482;47.014;7.652;2023-04-01T23:57:33;6.80;99.90
